Time;durP1;ratioP1;P1;durP2;ratioP2;P2;SDS_P1;SDS_P2;PMS_P1;PMS_P2;Temp;Humidity;BMP_temperature;BMP_pressure;BME280_temperature;BME280_humidity;BME280_pressure;Samples;Min_cycle;Max_cycle;Signal;HPM_P1;HPM_P2
2022/12/18 00:01:37;;;;;;;112.68;39.55;;;;;;;;;;5025254;28;20488;-72
2022/12/18 00:04:04;;;;;;;100.18;38.35;;;;;;;;;;5029794;28;20496;-72
2022/12/18 00:06:31;;;;;;;111.85;40.60;;;;;;;;;;5009668;28;20045;-72
2022/12/18 00:08:58;;;;;;;120.72;40.63;;;;;;;;;;5009553;28;20090;-72
2022/12/18 00:11:25;;;;;;;128.85;44.35;;;;;;;;;;5026880;28;20122;-72
2022/12/18 00:13:52;;;;;;;129.88;45.28;;;;;;;;;;5024562;28;20041;-72
2022/12/18 00:16:20;;;;;;;138.10;45.10;;;;;;;;;;5025482;28;20737;-73
2022/12/18 00:18:47;;;;;;;143.57;45.63;;;;;;;;;;5029352;28;20042;-74
2022/12/18 00:21:13;;;;;;;140.77;46.22;;;;;;;;;;5026596;28;20504;-73
2022/12/18 00:23:40;;;;;;;139.98;46.20;;;;;;;;;;5029716;28;20041;-74
2022/12/18 00:26:07;;;;;;;147.50;45.63;;;;;;;;;;5027785;28;20519;-72
2022/12/18 00:28:34;;;;;;;144.80;46.88;;;;;;;;;;5010459;28;20131;-74
2022/12/18 00:31:04;;;;;;;138.07;46.33;;;;;;;;;;5025786;28;20037;-74
2022/12/18 00:33:30;;;;;;;131.50;42.80;;;;;;;;;;5026260;28;20050;-74
2022/12/18 00:36:00;;;;;;;141.80;45.55;;;;;;;;;;5025944;28;20044;-73
2022/12/18 00:38:26;;;;;;;131.40;44.75;;;;;;;;;;5026444;28;20071;-73
2022/12/18 00:40:52;;;;;;;118.45;43.75;;;;;;;;;;5026312;28;20519;-73
2022/12/18 00:43:18;;;;;;;129.52;44.67;;;;;;;;;;5024765;28;20049;-74
2022/12/18 00:45:44;;;;;;;129.25;45.42;;;;;;;;;;5006774;28;20044;-71
2022/12/18 00:48:10;;;;;;;127.20;46.25;;;;;;;;;;5020514;28;20516;-73
2022/12/18 00:50:36;;;;;;;129.23;45.90;;;;;;;;;;5025508;28;20045;-73
2022/12/18 00:53:02;;;;;;;123.47;46.10;;;;;;;;;;5027089;28;20077;-73
2022/12/18 00:55:28;;;;;;;126.70;47.03;;;;;;;;;;5026249;28;20185;-73
2022/12/18 00:57:54;;;;;;;136.32;48.13;;;;;;;;;;5026329;28;20045;-73
2022/12/18 01:00:20;;;;;;;123.72;45.33;;;;;;;;;;5025340;28;20083;-74
2022/12/18 01:02:46;;;;;;;124.40;45.60;;;;;;;;;;5025102;28;20589;-72
2022/12/18 01:05:13;;;;;;;126.38;45.55;;;;;;;;;;5026060;28;20053;-72
2022/12/18 01:07:39;;;;;;;121.63;44.88;;;;;;;;;;5028037;28;20049;-74
2022/12/18 01:10:05;;;;;;;128.77;45.15;;;;;;;;;;5026870;28;20392;-72
2022/12/18 01:12:31;;;;;;;127.40;46.05;;;;;;;;;;5024318;28;20041;-72
2022/12/18 01:14:57;;;;;;;116.10;44.63;;;;;;;;;;5026116;28;20042;-74
2022/12/18 01:17:24;;;;;;;126.20;46.15;;;;;;;;;;5024408;28;20077;-73
2022/12/18 01:19:50;;;;;;;117.90;45.83;;;;;;;;;;5026383;28;20511;-74
2022/12/18 01:22:16;;;;;;;124.32;46.35;;;;;;;;;;5026793;28;20045;-74
2022/12/18 01:24:42;;;;;;;119.00;45.13;;;;;;;;;;5025731;28;20045;-74
2022/12/18 01:27:08;;;;;;;126.47;47.70;;;;;;;;;;5024769;28;20083;-73
2022/12/18 01:29:34;;;;;;;127.90;46.97;;;;;;;;;;5025228;28;20474;-73
2022/12/18 01:32:00;;;;;;;117.10;47.75;;;;;;;;;;5026888;28;20073;-72
2022/12/18 01:34:26;;;;;;;115.32;46.65;;;;;;;;;;5009437;28;20042;-73
2022/12/18 01:36:52;;;;;;;120.30;46.97;;;;;;;;;;5024908;28;20055;-72
2022/12/18 01:39:18;;;;;;;112.13;46.55;;;;;;;;;;5026521;28;20049;-73
2022/12/18 01:42:03;;;;;;;111.63;43.55;;;;;;;;;;5010808;28;20040;-73
2022/12/18 01:44:48;;;;;;;119.25;45.45;;;;;;;;;;5024207;28;20037;-73
2022/12/18 01:47:20;;;;;;;111.05;42.92;;;;;;;;;;5025438;28;20863;-73
2022/12/18 01:49:46;;;;;;;106.38;44.78;;;;;;;;;;5023553;28;20042;-75
2022/12/18 01:52:12;;;;;;;111.55;43.80;;;;;;;;;;5024750;28;20052;-73
2022/12/18 01:54:38;;;;;;;109.60;43.75;;;;;;;;;;5025843;28;20041;-72
2022/12/18 01:57:04;;;;;;;112.28;44.80;;;;;;;;;;5025646;28;20500;-74
2022/12/18 01:59:31;;;;;;;118.78;46.10;;;;;;;;;;5026066;28;20095;-73
2022/12/18 02:01:57;;;;;;;118.25;44.10;;;;;;;;;;5028898;28;20065;-73
2022/12/18 02:04:25;;;;;;;124.43;46.38;;;;;;;;;;5025311;28;20080;-73
2022/12/18 02:07:10;;;;;;;124.65;45.97;;;;;;;;;;5027808;28;20128;-72
2022/12/18 02:09:40;;;;;;;130.95;46.13;;;;;;;;;;5019987;28;20045;-71
2022/12/18 02:12:23;;;;;;;125.30;45.50;;;;;;;;;;5026295;28;20045;-72
2022/12/18 02:15:00;;;;;;;125.93;45.95;;;;;;;;;;5027122;28;20045;-73
2022/12/18 02:17:50;;;;;;;137.05;47.20;;;;;;;;;;5028627;28;20053;-73
2022/12/18 02:20:25;;;;;;;118.80;44.42;;;;;;;;;;5018253;28;20043;-73
2022/12/18 02:23:09;;;;;;;129.63;45.97;;;;;;;;;;5024652;28;20049;-73
2022/12/18 02:26:08;;;;;;;134.10;46.35;;;;;;;;;;5010054;28;20037;-72
2022/12/18 02:28:36;;;;;;;126.70;45.40;;;;;;;;;;4990916;28;20041;-73
2022/12/18 02:31:04;;;;;;;132.90;44.83;;;;;;;;;;5030058;28;20128;-72
2022/12/18 02:33:31;;;;;;;141.57;47.47;;;;;;;;;;5029294;28;20460;-73
2022/12/18 02:35:58;;;;;;;127.03;46.22;;;;;;;;;;5027532;28;20060;-73
2022/12/18 02:38:25;;;;;;;137.18;46.92;;;;;;;;;;5028872;28;20041;-73
2022/12/18 02:40:53;;;;;;;133.75;45.75;;;;;;;;;;5028378;28;20079;-72
2022/12/18 02:43:20;;;;;;;131.43;45.72;;;;;;;;;;5028109;28;20041;-73
2022/12/18 02:45:54;;;;;;;126.57;45.92;;;;;;;;;;5026806;28;20034;-72
2022/12/18 02:48:25;;;;;;;133.98;46.15;;;;;;;;;;5026018;28;20041;-73
2022/12/18 02:51:09;;;;;;;134.40;46.55;;;;;;;;;;5020747;28;20045;-72
2022/12/18 02:54:02;;;;;;;126.53;44.20;;;;;;;;;;5012438;28;20037;-72
2022/12/18 02:56:46;;;;;;;98.03;35.88;;;;;;;;;;5024949;28;20045;-73
2022/12/18 02:59:14;;;;;;;129.43;44.25;;;;;;;;;;5027975;28;22017;-72
2022/12/18 03:01:40;;;;;;;122.88;43.88;;;;;;;;;;5027034;28;20128;-74
2022/12/18 03:04:17;;;;;;;127.97;45.63;;;;;;;;;;5024625;28;20192;-73
2022/12/18 03:06:47;;;;;;;132.82;45.10;;;;;;;;;;5021568;28;20037;-73
2022/12/18 03:09:24;;;;;;;130.48;46.05;;;;;;;;;;5027584;28;20139;-74
2022/12/18 03:14:41;;;;;;;118.60;43.05;;;;;;;;;;5025701;28;20049;-74
2022/12/18 03:17:11;;;;;;;118.72;42.22;;;;;;;;;;5020513;28;20042;-71
2022/12/18 03:19:39;;;;;;;114.97;43.25;;;;;;;;;;5023933;28;20045;-73
2022/12/18 03:22:06;;;;;;;114.40;42.40;;;;;;;;;;5027499;28;20496;-72
2022/12/18 03:24:33;;;;;;;112.05;42.33;;;;;;;;;;5031420;28;20454;-73
2022/12/18 03:27:02;;;;;;;114.32;42.05;;;;;;;;;;5033692;28;20041;-73
2022/12/18 03:29:33;;;;;;;118.43;43.08;;;;;;;;;;5025598;28;20049;-74
2022/12/18 03:32:03;;;;;;;107.72;41.30;;;;;;;;;;5028244;28;20037;-74
2022/12/18 03:34:34;;;;;;;116.70;43.03;;;;;;;;;;5024630;28;20045;-74
2022/12/18 03:37:03;;;;;;;116.75;42.22;;;;;;;;;;5031321;28;20052;-71
2022/12/18 03:39:29;;;;;;;110.72;41.22;;;;;;;;;;5036207;28;20043;-72
2022/12/18 03:42:05;;;;;;;113.80;40.95;;;;;;;;;;5029098;28;20043;-73
2022/12/18 03:44:43;;;;;;;112.97;41.08;;;;;;;;;;5020962;28;20056;-73
2022/12/18 03:47:28;;;;;;;112.65;40.97;;;;;;;;;;5029550;28;20479;-73
2022/12/18 03:49:59;;;;;;;111.88;40.40;;;;;;;;;;5033585;28;20041;-74
2022/12/18 03:52:33;;;;;;;107.80;40.50;;;;;;;;;;5031908;28;20045;-73
2022/12/18 03:55:00;;;;;;;98.88;39.17;;;;;;;;;;5012627;28;20500;-73
2022/12/18 03:57:28;;;;;;;104.03;38.35;;;;;;;;;;5013195;28;20041;-73
2022/12/18 03:59:59;;;;;;;101.38;39.85;;;;;;;;;;5026163;28;20041;-73
2022/12/18 04:02:26;;;;;;;105.85;39.90;;;;;;;;;;5029404;28;20041;-72
2022/12/18 04:04:54;;;;;;;99.85;40.08;;;;;;;;;;5027801;28;20117;-74
2022/12/18 04:07:20;;;;;;;104.60;39.30;;;;;;;;;;5031559;28;20069;-72
2022/12/18 04:09:48;;;;;;;95.00;38.15;;;;;;;;;;5029591;28;20048;-73
2022/12/18 04:12:14;;;;;;;93.82;36.95;;;;;;;;;;5028970;28;20061;-74
2022/12/18 04:14:40;;;;;;;94.25;37.63;;;;;;;;;;5027156;28;20087;-74
2022/12/18 04:17:06;;;;;;;95.93;37.25;;;;;;;;;;5030353;28;20061;-75
2022/12/18 04:19:32;;;;;;;87.05;35.90;;;;;;;;;;5029994;28;20080;-72
2022/12/18 04:21:58;;;;;;;94.40;35.97;;;;;;;;;;5013298;28;20080;-73
2022/12/18 04:24:24;;;;;;;92.80;36.97;;;;;;;;;;5032047;28;20057;-73
2022/12/18 04:26:50;;;;;;;78.35;33.90;;;;;;;;;;5038503;28;20037;-73
2022/12/18 04:29:16;;;;;;;77.97;34.13;;;;;;;;;;5032083;28;20052;-74
2022/12/18 04:31:42;;;;;;;76.13;32.90;;;;;;;;;;5030123;28;20051;-72
2022/12/18 04:34:08;;;;;;;75.47;31.48;;;;;;;;;;5010651;28;20281;-73
2022/12/18 04:36:34;;;;;;;80.05;32.50;;;;;;;;;;5030659;28;20048;-73
2022/12/18 04:39:00;;;;;;;74.07;32.38;;;;;;;;;;5033762;28;20047;-74
2022/12/18 04:41:26;;;;;;;76.07;33.17;;;;;;;;;;5030770;28;20120;-73
2022/12/18 04:43:52;;;;;;;74.65;31.83;;;;;;;;;;5027982;28;20041;-72
2022/12/18 04:46:18;;;;;;;72.10;31.63;;;;;;;;;;5028559;28;20045;-72
2022/12/18 04:48:46;;;;;;;77.78;32.20;;;;;;;;;;5026911;28;20095;-72
2022/12/18 04:51:12;;;;;;;73.90;32.05;;;;;;;;;;5026743;28;20049;-73
2022/12/18 04:53:39;;;;;;;78.72;31.90;;;;;;;;;;5030494;28;20041;-72
2022/12/18 04:56:05;;;;;;;70.53;31.33;;;;;;;;;;5034639;28;20048;-74
2022/12/18 04:58:31;;;;;;;73.07;31.40;;;;;;;;;;5030136;28;20069;-72
2022/12/18 05:00:57;;;;;;;71.50;30.45;;;;;;;;;;5029670;28;20141;-73
2022/12/18 05:03:23;;;;;;;66.35;28.83;;;;;;;;;;5028039;28;20056;-73
2022/12/18 05:05:50;;;;;;;62.53;29.33;;;;;;;;;;5025928;28;20049;-72
2022/12/18 05:08:16;;;;;;;66.40;29.65;;;;;;;;;;5029731;28;20049;-74
2022/12/18 05:10:42;;;;;;;67.03;30.05;;;;;;;;;;5028830;28;20060;-74
2022/12/18 05:13:09;;;;;;;60.92;28.80;;;;;;;;;;5012049;28;20512;-74
2022/12/18 05:15:35;;;;;;;59.83;29.00;;;;;;;;;;5025256;28;20050;-74
2022/12/18 05:18:01;;;;;;;58.60;27.63;;;;;;;;;;5019697;28;20444;-72
2022/12/18 05:20:27;;;;;;;60.03;27.60;;;;;;;;;;5029979;28;20045;-73
2022/12/18 05:22:54;;;;;;;63.88;29.67;;;;;;;;;;5030261;28;20091;-72
2022/12/18 05:25:20;;;;;;;66.10;28.33;;;;;;;;;;5030377;28;20065;-73
2022/12/18 05:27:46;;;;;;;58.72;27.63;;;;;;;;;;5026249;28;20049;-72
2022/12/18 05:30:13;;;;;;;61.58;28.02;;;;;;;;;;5029937;28;20056;-73
2022/12/18 05:32:39;;;;;;;58.83;28.35;;;;;;;;;;5028983;28;20049;-73
2022/12/18 05:35:05;;;;;;;64.97;27.98;;;;;;;;;;5031244;28;20076;-73
2022/12/18 05:37:31;;;;;;;56.17;25.17;;;;;;;;;;5029355;28;20045;-72
2022/12/18 05:39:57;;;;;;;56.28;26.08;;;;;;;;;;5033837;28;20131;-74
2022/12/18 05:42:23;;;;;;;51.75;25.88;;;;;;;;;;5027549;28;20124;-73
2022/12/18 05:44:49;;;;;;;55.92;26.08;;;;;;;;;;5029356;28;20037;-72
2022/12/18 05:47:15;;;;;;;53.15;25.10;;;;;;;;;;5028368;28;20451;-73
2022/12/18 05:49:41;;;;;;;50.90;24.98;;;;;;;;;;5027295;28;20086;-74
2022/12/18 05:52:07;;;;;;;52.03;25.75;;;;;;;;;;5028278;28;20581;-74
2022/12/18 05:54:33;;;;;;;52.00;24.60;;;;;;;;;;5033542;28;20045;-74
2022/12/18 05:56:59;;;;;;;52.60;25.50;;;;;;;;;;5026563;28;20085;-72
2022/12/18 05:59:25;;;;;;;52.30;24.80;;;;;;;;;;5028936;28;20057;-73
2022/12/18 06:01:51;;;;;;;47.67;24.40;;;;;;;;;;5027624;28;20060;-73
2022/12/18 06:04:17;;;;;;;50.50;24.90;;;;;;;;;;5011617;28;20128;-72
2022/12/18 06:06:43;;;;;;;51.20;24.10;;;;;;;;;;5029474;28;20562;-72
2022/12/18 06:09:09;;;;;;;56.72;24.88;;;;;;;;;;5028518;28;20056;-75
2022/12/18 06:11:36;;;;;;;48.90;25.25;;;;;;;;;;5030583;28;20091;-74
2022/12/18 06:14:03;;;;;;;47.20;24.27;;;;;;;;;;5028914;28;20064;-73
2022/12/18 06:16:29;;;;;;;50.65;24.77;;;;;;;;;;5020432;28;20136;-74
2022/12/18 06:18:59;;;;;;;51.55;25.35;;;;;;;;;;5028955;28;20400;-74
2022/12/18 06:21:25;;;;;;;46.15;23.90;;;;;;;;;;5030005;28;20056;-74
2022/12/18 06:23:51;;;;;;;52.70;23.90;;;;;;;;;;5026852;28;20045;-72
2022/12/18 06:26:17;;;;;;;49.10;23.55;;;;;;;;;;5019820;28;20124;-74
2022/12/18 06:28:43;;;;;;;48.30;23.58;;;;;;;;;;5029063;28;20041;-74
2022/12/18 06:31:09;;;;;;;47.00;23.90;;;;;;;;;;5029741;28;20072;-72
2022/12/18 06:33:35;;;;;;;46.38;23.30;;;;;;;;;;5025466;28;20069;-74
2022/12/18 06:36:06;;;;;;;44.40;22.02;;;;;;;;;;5026017;28;20137;-73
2022/12/18 06:38:33;;;;;;;40.55;22.33;;;;;;;;;;5030958;28;20037;-74
2022/12/18 06:40:59;;;;;;;41.75;21.40;;;;;;;;;;5027075;28;20139;-73
2022/12/18 06:43:25;;;;;;;44.28;22.45;;;;;;;;;;5026779;28;20104;-73
2022/12/18 06:45:52;;;;;;;42.78;21.17;;;;;;;;;;5010982;28;20128;-73
2022/12/18 06:48:22;;;;;;;46.67;22.65;;;;;;;;;;5017579;28;20564;-74
2022/12/18 06:50:48;;;;;;;44.67;22.80;;;;;;;;;;5019421;28;20400;-73
2022/12/18 06:53:14;;;;;;;45.92;22.45;;;;;;;;;;5027969;28;20041;-73
2022/12/18 06:55:40;;;;;;;43.92;21.65;;;;;;;;;;5026440;28;20053;-73
2022/12/18 06:58:06;;;;;;;44.13;22.48;;;;;;;;;;5021114;28;20315;-73
2022/12/18 07:00:32;;;;;;;41.97;22.23;;;;;;;;;;5019403;28;20099;-73
2022/12/18 07:02:58;;;;;;;46.13;22.15;;;;;;;;;;5010715;28;20037;-73
2022/12/18 07:05:24;;;;;;;42.90;21.92;;;;;;;;;;5029790;28;20060;-73
2022/12/18 07:07:50;;;;;;;43.58;21.27;;;;;;;;;;5011617;28;20037;-73
2022/12/18 07:10:16;;;;;;;45.65;21.58;;;;;;;;;;5031309;28;20041;-73
2022/12/18 07:12:42;;;;;;;40.88;21.23;;;;;;;;;;5027455;28;20045;-73
2022/12/18 07:15:08;;;;;;;41.78;20.75;;;;;;;;;;5010887;28;20148;-73
2022/12/18 07:17:34;;;;;;;39.92;21.38;;;;;;;;;;5023036;28;20076;-73
2022/12/18 07:20:01;;;;;;;42.17;20.55;;;;;;;;;;5029907;28;20445;-72
2022/12/18 07:22:27;;;;;;;42.75;21.55;;;;;;;;;;5027592;28;20121;-73
2022/12/18 07:24:53;;;;;;;43.85;20.40;;;;;;;;;;5023699;28;20532;-73
2022/12/18 07:27:19;;;;;;;41.03;20.40;;;;;;;;;;5007689;28;20124;-73
2022/12/18 07:29:45;;;;;;;42.55;20.48;;;;;;;;;;5023212;28;20076;-73
2022/12/18 07:32:11;;;;;;;44.25;21.65;;;;;;;;;;5027724;28;20056;-73
2022/12/18 07:34:37;;;;;;;43.90;21.10;;;;;;;;;;5029991;28;20519;-73
2022/12/18 07:37:03;;;;;;;46.00;21.63;;;;;;;;;;5031621;28;20128;-74
2022/12/18 07:39:29;;;;;;;41.83;20.75;;;;;;;;;;5026737;28;21813;-73
2022/12/18 07:44:40;;;;;;;42.70;21.45;;;;;;;;;;5027688;28;20045;-73
2022/12/18 07:47:05;;;;;;;47.13;22.90;;;;;;;;;;5025992;28;20045;-73
2022/12/18 07:49:31;;;;;;;48.35;22.65;;;;;;;;;;5024940;28;20049;-74
2022/12/18 07:51:58;;;;;;;45.45;21.45;;;;;;;;;;5015572;28;20053;-73
2022/12/18 07:54:24;;;;;;;45.78;21.35;;;;;;;;;;5026468;28;20045;-76
2022/12/18 07:56:51;;;;;;;41.92;20.85;;;;;;;;;;5026046;28;20440;-73
2022/12/18 07:59:18;;;;;;;42.60;21.13;;;;;;;;;;5024839;28;20049;-72
2022/12/18 08:01:44;;;;;;;41.05;21.25;;;;;;;;;;5024828;28;20038;-72
2022/12/18 08:04:10;;;;;;;41.10;21.25;;;;;;;;;;5026676;28;20038;-72
2022/12/18 08:06:36;;;;;;;43.15;20.67;;;;;;;;;;5026660;28;20114;-72
2022/12/18 08:09:02;;;;;;;40.67;20.85;;;;;;;;;;5027384;28;20466;-73
2022/12/18 08:11:28;;;;;;;42.08;21.20;;;;;;;;;;5028792;28;20041;-73
2022/12/18 08:13:54;;;;;;;41.85;21.13;;;;;;;;;;5028976;28;20045;-72
2022/12/18 08:16:21;;;;;;;39.05;20.67;;;;;;;;;;5012572;28;20463;-74
2022/12/18 08:18:47;;;;;;;43.83;20.63;;;;;;;;;;5026086;28;20053;-74
2022/12/18 08:21:32;;;;;;;41.45;20.42;;;;;;;;;;5022560;28;20056;-72
2022/12/18 08:23:58;;;;;;;42.28;21.20;;;;;;;;;;5029502;28;20042;-73
2022/12/18 08:26:25;;;;;;;42.55;20.60;;;;;;;;;;5028534;28;20045;-71
2022/12/18 08:28:51;;;;;;;43.83;21.42;;;;;;;;;;5030266;28;20612;-72
2022/12/18 08:31:19;;;;;;;41.22;21.23;;;;;;;;;;5025201;28;20470;-72
2022/12/18 08:33:45;;;;;;;37.28;19.75;;;;;;;;;;5030614;28;20519;-72
2022/12/18 08:36:11;;;;;;;40.90;22.73;;;;;;;;;;5027480;28;20091;-73
2022/12/18 08:38:38;;;;;;;42.25;21.98;;;;;;;;;;5025549;28;20054;-74
2022/12/18 08:41:08;;;;;;;55.13;27.27;;;;;;;;;;5027646;28;20183;-74
2022/12/18 08:46:19;;;;;;;36.80;19.52;;;;;;;;;;5022931;28;20041;-73
2022/12/18 08:48:45;;;;;;;33.22;18.40;;;;;;;;;;5024132;28;20034;-72
2022/12/18 08:51:11;;;;;;;32.42;18.75;;;;;;;;;;5020622;28;20428;-73
2022/12/18 08:53:37;;;;;;;33.63;18.95;;;;;;;;;;5024083;28;20046;-73
2022/12/18 08:56:04;;;;;;;34.58;19.13;;;;;;;;;;5022789;28;20045;-74
2022/12/18 08:58:30;;;;;;;33.28;18.70;;;;;;;;;;5023780;28;20507;-72
2022/12/18 09:01:01;;;;;;;38.10;19.75;;;;;;;;;;5019122;28;20462;-73
2022/12/18 09:03:26;;;;;;;31.00;17.75;;;;;;;;;;5007364;28;20029;-72
2022/12/18 09:05:52;;;;;;;33.15;18.52;;;;;;;;;;5019858;28;20157;-73
2022/12/18 09:08:18;;;;;;;33.25;19.17;;;;;;;;;;4990592;28;20084;-75
2022/12/18 09:10:45;;;;;;;34.00;18.63;;;;;;;;;;5007139;28;20053;-74
2022/12/18 09:13:12;;;;;;;33.70;17.85;;;;;;;;;;5008312;28;20070;-74
2022/12/18 09:15:42;;;;;;;34.20;18.83;;;;;;;;;;5009925;28;20045;-74
2022/12/18 09:18:08;;;;;;;33.13;18.05;;;;;;;;;;4993267;28;20513;-72
2022/12/18 09:20:35;;;;;;;35.63;18.63;;;;;;;;;;5007035;28;20108;-74
2022/12/18 09:23:01;;;;;;;29.00;16.60;;;;;;;;;;5007434;28;20038;-72
2022/12/18 09:25:31;;;;;;;27.92;17.48;;;;;;;;;;5023711;28;20104;-73
2022/12/18 09:27:57;;;;;;;31.17;16.75;;;;;;;;;;4988909;28;20045;-73
2022/12/18 09:30:23;;;;;;;31.45;17.70;;;;;;;;;;5003539;28;20066;-72
2022/12/18 09:32:49;;;;;;;30.55;17.75;;;;;;;;;;4999607;28;20042;-75
2022/12/18 09:35:15;;;;;;;27.75;16.13;;;;;;;;;;5000009;28;20054;-74
2022/12/18 09:37:42;;;;;;;32.63;18.98;;;;;;;;;;5002539;28;20057;-73
2022/12/18 09:40:14;;;;;;;25.50;15.63;;;;;;;;;;5006272;28;20049;-73
2022/12/18 09:43:00;;;;;;;25.13;15.23;;;;;;;;;;5007407;28;20038;-73
2022/12/18 09:45:51;;;;;;;24.75;15.10;;;;;;;;;;5008007;28;20041;-73
2022/12/18 09:48:40;;;;;;;23.92;14.82;;;;;;;;;;5004621;28;20053;-74
2022/12/18 09:51:33;;;;;;;27.08;14.40;;;;;;;;;;5005938;28;20056;-74
2022/12/18 09:54:26;;;;;;;21.20;13.60;;;;;;;;;;5005744;28;20046;-73
2022/12/18 09:57:24;;;;;;;23.15;13.55;;;;;;;;;;4993527;28;20088;-73
2022/12/18 10:00:20;;;;;;;22.17;13.02;;;;;;;;;;5002890;28;20077;-73
2022/12/18 10:03:12;;;;;;;23.95;13.35;;;;;;;;;;5020111;28;20042;-73
2022/12/18 10:06:04;;;;;;;21.35;13.75;;;;;;;;;;4993981;28;20117;-75
2022/12/18 10:08:58;;;;;;;20.98;12.90;;;;;;;;;;4998500;28;20046;-72
2022/12/18 10:12:04;;;;;;;22.65;12.75;;;;;;;;;;4995824;28;20156;-73
2022/12/18 10:14:50;;;;;;;23.45;13.68;;;;;;;;;;5000020;28;20753;-74
2022/12/18 10:17:55;;;;;;;21.50;12.10;;;;;;;;;;5005694;28;20049;-75
2022/12/18 10:20:48;;;;;;;19.05;12.18;;;;;;;;;;5004426;28;20722;-73
2022/12/18 10:23:53;;;;;;;24.23;12.38;;;;;;;;;;5001581;28;20038;-75
2022/12/18 10:26:41;;;;;;;19.13;11.68;;;;;;;;;;5003032;28;20481;-76
2022/12/18 10:29:27;;;;;;;19.55;11.77;;;;;;;;;;5001767;28;20072;-72
2022/12/18 10:32:16;;;;;;;20.00;12.07;;;;;;;;;;5002724;28;20108;-72
2022/12/18 10:35:02;;;;;;;17.48;12.02;;;;;;;;;;5016623;28;20046;-70
2022/12/18 10:38:03;;;;;;;20.70;12.80;;;;;;;;;;4990136;28;20389;-73
2022/12/18 10:40:56;;;;;;;21.50;11.88;;;;;;;;;;4998674;28;20523;-73
2022/12/18 10:43:42;;;;;;;16.73;9.55;;;;;;;;;;4997142;28;20089;-71
2022/12/18 10:46:28;;;;;;;22.20;12.40;;;;;;;;;;4985886;28;20042;-71
2022/12/18 10:49:30;;;;;;;18.58;12.10;;;;;;;;;;5001141;28;20132;-72
2022/12/18 10:52:22;;;;;;;17.98;11.25;;;;;;;;;;5016909;28;20046;-71
2022/12/18 10:55:16;;;;;;;20.23;11.23;;;;;;;;;;5003709;28;20153;-73
2022/12/18 10:58:23;;;;;;;17.08;11.23;;;;;;;;;;5004632;28;20496;-70
2022/12/18 11:01:11;;;;;;;23.90;10.85;;;;;;;;;;5004420;28;20038;-72
2022/12/18 11:03:57;;;;;;;17.75;10.60;;;;;;;;;;5004130;28;20037;-72
2022/12/18 11:06:57;;;;;;;17.90;10.13;;;;;;;;;;5003701;28;20041;-70
2022/12/18 11:09:44;;;;;;;18.33;10.63;;;;;;;;;;5003301;28;20094;-71
2022/12/18 11:12:30;;;;;;;14.82;9.57;;;;;;;;;;5005865;28;20558;-71
2022/12/18 11:15:19;;;;;;;15.07;9.00;;;;;;;;;;5006002;28;20475;-70
2022/12/18 11:18:17;;;;;;;16.23;9.55;;;;;;;;;;5007365;28;20050;-70
2022/12/18 11:21:07;;;;;;;13.05;8.88;;;;;;;;;;5004084;28;20046;-73
2022/12/18 11:23:54;;;;;;;13.95;8.90;;;;;;;;;;5003495;28;20404;-70
2022/12/18 11:26:43;;;;;;;22.63;13.20;;;;;;;;;;5000420;28;21684;-72
2022/12/18 11:29:33;;;;;;;11.00;7.50;;;;;;;;;;5000724;28;20061;-71
2022/12/18 11:32:32;;;;;;;14.35;8.23;;;;;;;;;;5002323;28;20042;-71
2022/12/18 11:35:18;;;;;;;13.50;8.25;;;;;;;;;;5000940;28;20560;-70
2022/12/18 11:38:14;;;;;;;13.52;8.00;;;;;;;;;;4999579;28;20043;-71
2022/12/18 11:41:19;;;;;;;10.93;7.15;;;;;;;;;;5019174;28;20509;-72
2022/12/18 11:44:08;;;;;;;13.05;7.30;;;;;;;;;;5010206;28;20034;-70
2022/12/18 11:47:00;;;;;;;10.95;7.50;;;;;;;;;;5004750;28;20531;-71
2022/12/18 11:49:49;;;;;;;9.32;6.25;;;;;;;;;;5007524;28;20040;-70
2022/12/18 11:52:40;;;;;;;11.10;6.82;;;;;;;;;;5007042;28;20420;-72
2022/12/18 11:55:34;;;;;;;8.68;6.25;;;;;;;;;;5007191;28;20052;-72
2022/12/18 11:58:24;;;;;;;9.93;6.32;;;;;;;;;;5007474;28;20043;-71
2022/12/18 12:01:14;;;;;;;8.98;6.07;;;;;;;;;;5003285;28;20535;-71
2022/12/18 12:04:04;;;;;;;9.30;6.72;;;;;;;;;;5006626;28;20046;-71
2022/12/18 12:07:02;;;;;;;10.68;5.88;;;;;;;;;;5000068;28;20042;-71
2022/12/18 12:09:54;;;;;;;9.10;6.25;;;;;;;;;;5003043;28;20184;-69
2022/12/18 12:12:50;;;;;;;9.13;5.85;;;;;;;;;;5004032;28;20053;-70
2022/12/18 12:15:39;;;;;;;9.25;5.93;;;;;;;;;;5002466;28;20044;-70
2022/12/18 12:18:29;;;;;;;11.52;6.07;;;;;;;;;;5002277;28;20057;-72
2022/12/18 12:21:24;;;;;;;9.45;6.10;;;;;;;;;;5002860;28;20050;-71
2022/12/18 12:26:39;;;;;;;8.95;6.18;;;;;;;;;;5992029;23;20030;-71
2022/12/18 12:29:44;;;;;;;9.63;6.22;;;;;;;;;;5004971;28;20045;-70
2022/12/18 12:32:31;;;;;;;11.95;6.30;;;;;;;;;;5026075;28;20200;-70
2022/12/18 12:35:17;;;;;;;9.23;6.32;;;;;;;;;;5003604;28;20128;-70
2022/12/18 12:38:18;;;;;;;8.70;6.07;;;;;;;;;;4994373;28;20046;-70
2022/12/18 12:43:12;;;;;;;10.35;6.38;;;;;;;;;;4988336;28;20064;-73
2022/12/18 12:44:16;;;;;;;10.23;6.38;;;;;;;;;;4982535;28;20039;-72
2022/12/18 12:47:07;;;;;;;10.48;6.55;;;;;;;;;;4982549;28;20046;-69
2022/12/18 12:49:54;;;;;;;9.43;6.47;;;;;;;;;;4983264;28;20058;-71
2022/12/18 12:52:44;;;;;;;8.85;5.75;;;;;;;;;;4982965;28;20046;-71
2022/12/18 12:55:30;;;;;;;9.43;6.43;;;;;;;;;;4982644;28;20084;-70
2022/12/18 12:58:53;;;;;;;10.05;6.90;;;;;;;;;;4981520;28;20078;-70
2022/12/18 13:01:43;;;;;;;13.93;6.70;;;;;;;;;;4960933;28;20063;-72
2022/12/18 13:04:45;;;;;;;9.38;6.60;;;;;;;;;;4984765;28;20182;-70
2022/12/18 13:07:41;;;;;;;10.15;6.65;;;;;;;;;;4981425;28;20101;-72
2022/12/18 13:10:32;;;;;;;9.02;6.32;;;;;;;;;;4983834;28;20054;-71
2022/12/18 13:13:19;;;;;;;11.27;6.70;;;;;;;;;;4981186;28;20053;-71
2022/12/18 13:16:06;;;;;;;9.27;6.60;;;;;;;;;;4983110;28;20046;-71
2022/12/18 13:18:58;;;;;;;11.35;7.28;;;;;;;;;;4981388;28;20050;-71
2022/12/18 13:21:53;;;;;;;10.50;6.65;;;;;;;;;;4982593;28;20065;-72
2022/12/18 13:24:39;;;;;;;10.73;6.72;;;;;;;;;;4981104;28;20061;-72
2022/12/18 13:27:41;;;;;;;11.30;6.38;;;;;;;;;;4978314;28;20046;-71
2022/12/18 13:30:33;;;;;;;9.88;6.85;;;;;;;;;;4981705;28;20054;-70
2022/12/18 13:33:19;;;;;;;13.57;7.28;;;;;;;;;;4980159;28;20054;-71
2022/12/18 13:36:24;;;;;;;10.02;6.70;;;;;;;;;;4981359;28;20054;-70
2022/12/18 13:39:14;;;;;;;11.52;6.97;;;;;;;;;;4982201;28;20138;-70
2022/12/18 13:42:07;;;;;;;11.13;6.28;;;;;;;;;;4967242;28;20054;-71
2022/12/18 13:44:53;;;;;;;10.38;7.03;;;;;;;;;;4982273;28;20119;-70
2022/12/18 13:47:40;;;;;;;10.38;6.57;;;;;;;;;;4983531;28;20494;-72
2022/12/18 13:50:26;;;;;;;9.52;6.30;;;;;;;;;;4976336;28;20058;-71
2022/12/18 13:53:20;;;;;;;12.65;6.35;;;;;;;;;;4980084;28;20061;-72
2022/12/18 13:56:07;;;;;;;9.90;6.90;;;;;;;;;;4980708;28;20059;-71
2022/12/18 13:59:12;;;;;;;10.25;7.00;;;;;;;;;;4964379;28;20046;-70
2022/12/18 14:02:00;;;;;;;10.98;6.60;;;;;;;;;;4979417;28;20062;-72
2022/12/18 14:04:47;;;;;;;9.07;6.30;;;;;;;;;;4977983;28;20586;-71
2022/12/18 14:07:33;;;;;;;9.50;6.28;;;;;;;;;;4992382;28;20050;-71
2022/12/18 14:10:21;;;;;;;10.52;6.70;;;;;;;;;;4983533;28;20047;-70
2022/12/18 14:13:09;;;;;;;10.70;6.78;;;;;;;;;;4979056;28;20038;-71
2022/12/18 14:15:56;;;;;;;9.40;7.03;;;;;;;;;;4981453;28;20046;-71
2022/12/18 14:18:45;;;;;;;11.43;6.55;;;;;;;;;;4981892;28;20054;-72
2022/12/18 14:21:33;;;;;;;9.07;6.43;;;;;;;;;;4978733;28;20051;-71
2022/12/18 14:24:21;;;;;;;10.48;6.72;;;;;;;;;;4980326;28;20496;-72
2022/12/18 14:27:20;;;;;;;11.85;7.20;;;;;;;;;;4983682;28;20097;-72
2022/12/18 14:30:36;;;;;;;9.95;6.70;;;;;;;;;;4987726;28;20046;-70
2022/12/18 14:33:24;;;;;;;11.25;7.03;;;;;;;;;;4987661;28;20130;-70
2022/12/18 14:36:18;;;;;;;11.32;7.00;;;;;;;;;;4986364;28;20054;-70
2022/12/18 14:39:04;;;;;;;11.15;6.68;;;;;;;;;;4985712;28;20137;-70
2022/12/18 14:41:51;;;;;;;11.02;6.82;;;;;;;;;;4985095;28;20058;-70
2022/12/18 14:44:37;;;;;;;12.45;7.30;;;;;;;;;;4989220;28;20636;-70
2022/12/18 14:47:24;;;;;;;12.68;7.78;;;;;;;;;;4987493;28;20054;-70
2022/12/18 14:50:14;;;;;;;12.05;7.38;;;;;;;;;;4990219;28;20042;-71
2022/12/18 14:53:00;;;;;;;8.73;6.40;;;;;;;;;;4989771;28;20069;-72
2022/12/18 14:55:48;;;;;;;10.85;7.28;;;;;;;;;;4989256;28;20042;-72
2022/12/18 14:58:34;;;;;;;11.82;7.90;;;;;;;;;;4988766;28;20047;-72
2022/12/18 15:01:22;;;;;;;11.02;7.65;;;;;;;;;;4987081;28;20042;-71
2022/12/18 15:04:24;;;;;;;13.38;8.43;;;;;;;;;;4982867;28;20390;-72
2022/12/18 15:07:17;;;;;;;12.82;9.15;;;;;;;;;;4991167;28;20118;-72
2022/12/18 15:10:03;;;;;;;13.90;9.23;;;;;;;;;;4972936;28;20069;-72
2022/12/18 15:12:55;;;;;;;16.42;8.70;;;;;;;;;;4989517;28;20054;-73
2022/12/18 15:15:45;;;;;;;9.82;6.45;;;;;;;;;;4986792;28;20053;-70
2022/12/18 15:18:33;;;;;;;15.18;8.90;;;;;;;;;;4989004;28;20100;-70
2022/12/18 15:21:20;;;;;;;13.00;8.52;;;;;;;;;;4987480;28;20042;-70